Nomad — 9HA2354 — position and weather

sailwx.info

Track history (hours):
 
Tides and Currents Weather Stations Pressure Air Temp Water Temp Dewpoint Dewpoint Depression Visibility Wind Speed Wind Dir Waves Ship Positions

Nomad

Last reported at 2016-Jul-24 23:25 UTC. Time now 2016-Jul-27 15:26 UTC.
Position N 36°59' E 025°17'.

Length 70 m; draft 3 m.

Type: Other ship. MMSI: 248413000.

Date/timePositionNaut miles runAvg speedWind from/ knotsBaromVisibWave heightAir tempDewpointWater temp
2016-Jul-24 23:25N 36°59' E 025°17'1011.7
2016-Jul-24 22:33N 37°09' E 025°19'1111.1
2016-Jul-24 21:34N 37°20' E 025°19'4 4.0
2016-Jul-24 20:31N 37°24' E 025°19'0 0.1
2016-Jul-24 19:31N 37°25' E 025°19'0 0.0
2016-Jul-24 18:16N 37°25' E 025°19'0 0.1
2016-Jul-24 17:31N 37°24' E 025°19'0 0.0
2016-Jul-24 16:31N 37°24' E 025°19'0 0.0
2016-Jul-24 15:28N 37°24' E 025°19'0 0.1
2016-Jul-24 14:31N 37°24' E 025°19'0 0.1
2016-Jul-24 13:31N 37°25' E 025°19'0 0.1
2016-Jul-24 12:31N 37°24' E 025°19'0 0.1
2016-Jul-24 11:31N 37°24' E 025°19'0 0.0
2016-Jul-24 10:25N 37°24' E 025°19'0 0.0
2016-Jul-24 09:31N 37°24' E 025°19'0 0.0
2016-Jul-24 08:31N 37°24' E 025°19'0 0.0
2016-Jul-24 07:31N 37°24' E 025°19'0 0.0
2016-Jul-24 06:25N 37°24' E 025°19'0 0.0
2016-Jul-24 05:31N 37°24' E 025°19'0 0.0
2016-Jul-24 04:31N 37°24' E 025°19'0 0.0
2016-Jul-24 03:28N 37°25' E 025°19'0 0.0
2016-Jul-24 02:28N 37°24' E 025°19'0 0.0
2016-Jul-24 01:31N 37°25' E 025°19'0 0.0
2016-Jul-24 00:31N 37°24' E 025°19'0 0.0
2016-Jul-23 23:28N 37°24' E 025°19'0 0.0
2016-Jul-23 22:31N 37°24' E 025°19'0 0.0
2016-Jul-23 21:31N 37°24' E 025°19'0 0.0
2016-Jul-23 20:31N 37°24' E 025°19'0 0.0
2016-Jul-23 19:28N 37°24' E 025°19'0 0.0
2016-Jul-23 18:28N 37°25' E 025°19'0 0.0
2016-Jul-23 17:31N 37°25' E 025°19'0 0.0
2016-Jul-23 16:31N 37°24' E 025°19'0 0.0
2016-Jul-23 15:32N 37°25' E 025°19'6 6.5
2016-Jul-23 14:33N 37°24' E 025°27'1812.5
2016-Jul-23 13:06N 37°21' E 025°50'  
2016-Jul-19 01:33N 37°00' E 025°20'1111.1
2016-Jul-19 00:33N 37°11' E 025°19'1111.3
2016-Jul-18 23:33N 37°23' E 025°19'2 2.2
2016-Jul-18 22:33N 37°25' E 025°19'0 0.0
2016-Jul-18 21:30N 37°25' E 025°19'0 0.0
2016-Jul-18 20:24N 37°25' E 025°19'0 0.0
2016-Jul-18 19:33N 37°25' E 025°19'0 0.0
2016-Jul-18 18:33N 37°25' E 025°19'0 0.0
2016-Jul-18 17:30N 37°25' E 025°19'0 0.0
2016-Jul-18 16:33N 37°25' E 025°19'0 0.1
2016-Jul-18 15:33N 37°25' E 025°19'0 0.0
2016-Jul-18 14:33N 37°25' E 025°19'0 0.0
2016-Jul-18 13:30N 37°25' E 025°19'0 0.0
2016-Jul-18 12:33N 37°25' E 025°19'0 0.0
2016-Jul-18 11:33N 37°25' E 025°19'1 0.8
2016-Jul-18 10:33N 37°24' E 025°20'0 0.3
2016-Jul-18 09:33N 37°24' E 025°21'0 0.2
2016-Jul-18 08:33N 37°24' E 025°20'0 0.1
2016-Jul-18 07:30N 37°24' E 025°20'0 0.0
2016-Jul-18 06:33N 37°24' E 025°20'0 0.0
2016-Jul-18 05:33N 37°24' E 025°20'1 0.7
2016-Jul-18 04:33N 37°24' E 025°20'1111.1
2016-Jul-18 03:33N 37°28' E 025°07'1412.2
2016-Jul-18 02:27N 37°31' E 024°50'46 1.2
2016-Jul-16 11:33N 37°40' E 023°54'1313.3
2016-Jul-16 10:33N 37°50' E 023°43'1 1.3
2016-Jul-16 09:31N 37°51' E 023°44'0 0.0
2016-Jul-16 08:31N 37°51' E 023°44'0 0.0
2016-Jul-16 07:31N 37°51' E 023°44'0 0.0
2016-Jul-16 06:31N 37°51' E 023°44'0 0.0
2016-Jul-16 04:32N 37°51' E 023°44'0 0.0
2016-Jul-16 03:31N 37°51' E 023°44'0 0.0
2016-Jul-16 02:31N 37°51' E 023°44'0 0.0
2016-Jul-16 01:31N 37°51' E 023°44'0 0.0
2016-Jul-16 00:31N 37°52' E 023°44'0 0.0
2016-Jul-15 23:31N 37°52' E 023°44'0 0.0
2016-Jul-15 22:31N 37°52' E 023°44'0 0.0
2016-Jul-15 21:31N 37°52' E 023°44'0 0.0
2016-Jul-15 20:31N 37°52' E 023°44'0 0.0
2016-Jul-15 19:31N 37°52' E 023°44'0 0.0
2016-Jul-15 18:31N 37°52' E 023°44'0 0.0
2016-Jul-15 17:31N 37°52' E 023°44'0 0.0
2016-Jul-15 16:34N 37°52' E 023°44'0 0.0
2016-Jul-15 15:34N 37°52' E 023°44'0 0.2
2016-Jul-15 14:33N 37°51' E 023°44'3213.5
2016-Jul-15 12:10N 37°22' E 023°28'2 1.9
2016-Jul-15 11:21N 37°21' E 023°26'0 0.0
2016-Jul-15 08:27N 37°21' E 023°26'0 0.0
2016-Jul-15 07:18N 37°21' E 023°26'0 0.0
2016-Jul-15 06:21N 37°21' E 023°26'0 0.0
2016-Jul-15 04:30N 37°21' E 023°26'0 0.0
2016-Jul-15 01:27N 37°21' E 023°26'0 0.0
2016-Jul-15 00:18N 37°21' E 023°26'  
Track history (hours):
 
Tides and Currents Weather Stations Pressure Air Temp Water Temp Dewpoint Dewpoint Depression Visibility Wind Speed Wind Dir Waves Ship Positions

Nomad

Last reported at 2016-Jul-24 23:25 UTC. Time now 2016-Jul-27 15:26 UTC.
Position N 36°59' E 025°17'.

Length 70 m; draft 3 m.

Type: Other ship. MMSI: 248413000.

Date/timePositionNaut miles runAvg speedWind from/ knotsBaromVisibWave heightAir tempDewpointWater temp
2016-Jul-24 23:25N 36°59' E 025°17'1011.7
2016-Jul-24 22:33N 37°09' E 025°19'1111.1
2016-Jul-24 21:34N 37°20' E 025°19'4 4.0
2016-Jul-24 20:31N 37°24' E 025°19'0 0.1
2016-Jul-24 19:31N 37°25' E 025°19'0 0.0
2016-Jul-24 18:16N 37°25' E 025°19'0 0.1
2016-Jul-24 17:31N 37°24' E 025°19'0 0.0
2016-Jul-24 16:31N 37°24' E 025°19'0 0.0
2016-Jul-24 15:28N 37°24' E 025°19'0 0.1
2016-Jul-24 14:31N 37°24' E 025°19'0 0.1
2016-Jul-24 13:31N 37°25' E 025°19'0 0.1
2016-Jul-24 12:31N 37°24' E 025°19'0 0.1
2016-Jul-24 11:31N 37°24' E 025°19'0 0.0
2016-Jul-24 10:25N 37°24' E 025°19'0 0.0
2016-Jul-24 09:31N 37°24' E 025°19'0 0.0
2016-Jul-24 08:31N 37°24' E 025°19'0 0.0
2016-Jul-24 07:31N 37°24' E 025°19'0 0.0
2016-Jul-24 06:25N 37°24' E 025°19'0 0.0
2016-Jul-24 05:31N 37°24' E 025°19'0 0.0
2016-Jul-24 04:31N 37°24' E 025°19'0 0.0
2016-Jul-24 03:28N 37°25' E 025°19'0 0.0
2016-Jul-24 02:28N 37°24' E 025°19'0 0.0
2016-Jul-24 01:31N 37°25' E 025°19'0 0.0
2016-Jul-24 00:31N 37°24' E 025°19'0 0.0
2016-Jul-23 23:28N 37°24' E 025°19'0 0.0
2016-Jul-23 22:31N 37°24' E 025°19'0 0.0
2016-Jul-23 21:31N 37°24' E 025°19'0 0.0
2016-Jul-23 20:31N 37°24' E 025°19'0 0.0
2016-Jul-23 19:28N 37°24' E 025°19'0 0.0
2016-Jul-23 18:28N 37°25' E 025°19'0 0.0
2016-Jul-23 17:31N 37°25' E 025°19'0 0.0
2016-Jul-23 16:31N 37°24' E 025°19'0 0.0
2016-Jul-23 15:32N 37°25' E 025°19'6 6.5
2016-Jul-23 14:33N 37°24' E 025°27'1812.5
2016-Jul-23 13:06N 37°21' E 025°50'  
2016-Jul-19 01:33N 37°00' E 025°20'1111.1
2016-Jul-19 00:33N 37°11' E 025°19'1111.3
2016-Jul-18 23:33N 37°23' E 025°19'2 2.2
2016-Jul-18 22:33N 37°25' E 025°19'0 0.0
2016-Jul-18 21:30N 37°25' E 025°19'0 0.0
2016-Jul-18 20:24N 37°25' E 025°19'0 0.0
2016-Jul-18 19:33N 37°25' E 025°19'0 0.0
2016-Jul-18 18:33N 37°25' E 025°19'0 0.0
2016-Jul-18 17:30N 37°25' E 025°19'0 0.0
2016-Jul-18 16:33N 37°25' E 025°19'0 0.1
2016-Jul-18 15:33N 37°25' E 025°19'0 0.0
2016-Jul-18 14:33N 37°25' E 025°19'0 0.0
2016-Jul-18 13:30N 37°25' E 025°19'0 0.0
2016-Jul-18 12:33N 37°25' E 025°19'0 0.0
2016-Jul-18 11:33N 37°25' E 025°19'1 0.8
2016-Jul-18 10:33N 37°24' E 025°20'0 0.3
2016-Jul-18 09:33N 37°24' E 025°21'0 0.2
2016-Jul-18 08:33N 37°24' E 025°20'0 0.1
2016-Jul-18 07:30N 37°24' E 025°20'0 0.0
2016-Jul-18 06:33N 37°24' E 025°20'0 0.0
2016-Jul-18 05:33N 37°24' E 025°20'1 0.7
2016-Jul-18 04:33N 37°24' E 025°20'1111.1
2016-Jul-18 03:33N 37°28' E 025°07'1412.2
2016-Jul-18 02:27N 37°31' E 024°50'46 1.2
2016-Jul-16 11:33N 37°40' E 023°54'1313.3
2016-Jul-16 10:33N 37°50' E 023°43'1 1.3
2016-Jul-16 09:31N 37°51' E 023°44'0 0.0
2016-Jul-16 08:31N 37°51' E 023°44'0 0.0
2016-Jul-16 07:31N 37°51' E 023°44'0 0.0
2016-Jul-16 06:31N 37°51' E 023°44'0 0.0
2016-Jul-16 04:32N 37°51' E 023°44'0 0.0
2016-Jul-16 03:31N 37°51' E 023°44'0 0.0
2016-Jul-16 02:31N 37°51' E 023°44'0 0.0
2016-Jul-16 01:31N 37°51' E 023°44'0 0.0
2016-Jul-16 00:31N 37°52' E 023°44'0 0.0
2016-Jul-15 23:31N 37°52' E 023°44'0 0.0
2016-Jul-15 22:31N 37°52' E 023°44'0 0.0
2016-Jul-15 21:31N 37°52' E 023°44'0 0.0
2016-Jul-15 20:31N 37°52' E 023°44'0 0.0
2016-Jul-15 19:31N 37°52' E 023°44'0 0.0
2016-Jul-15 18:31N 37°52' E 023°44'0 0.0
2016-Jul-15 17:31N 37°52' E 023°44'0 0.0
2016-Jul-15 16:34N 37°52' E 023°44'0 0.0
2016-Jul-15 15:34N 37°52' E 023°44'0 0.2
2016-Jul-15 14:33N 37°51' E 023°44'3213.5
2016-Jul-15 12:10N 37°22' E 023°28'2 1.9
2016-Jul-15 11:21N 37°21' E 023°26'0 0.0
2016-Jul-15 08:27N 37°21' E 023°26'0 0.0
2016-Jul-15 07:18N 37°21' E 023°26'0 0.0
2016-Jul-15 06:21N 37°21' E 023°26'0 0.0
2016-Jul-15 04:30N 37°21' E 023°26'0 0.0
2016-Jul-15 01:27N 37°21' E 023°26'0 0.0
2016-Jul-15 00:18N 37°21' E 023°26'  

Dump ship's entire track history